Time;durP1;ratioP1;P1;durP2;ratioP2;P2;SDS_P1;SDS_P2;PMS_P1;PMS_P2;Temp;Humidity;BMP_temperature;BMP_pressure;BME280_temperature;BME280_humidity;BME280_pressure;Samples;Min_cycle;Max_cycle;Signal;HPM_P1;HPM_P2
2021/12/04 00:02:21;;;;;;;;;4.25;2.50;;;;;;;;5034733;28;45342;-75
2021/12/04 00:04:49;;;;;;;;;1.00;1.00;;;;;;;;5034943;28;45688;-74
2021/12/04 00:07:15;;;;;;;;;3.00;1.50;;;;;;;;5034871;28;45388;-76
2021/12/04 00:09:44;;;;;;;;;0.00;0.00;;;;;;;;5035125;28;46331;-75
2021/12/04 00:12:10;;;;;;;;;2.00;1.00;;;;;;;;5034033;28;45473;-76
2021/12/04 00:14:36;;;;;;;;;1.00;1.00;;;;;;;;5034351;28;45497;-75
2021/12/04 00:17:03;;;;;;;;;0.00;0.00;;;;;;;;5033041;28;45490;-75
2021/12/04 00:19:28;;;;;;;;;0.00;0.00;;;;;;;;5034844;28;46545;-75
2021/12/04 00:21:54;;;;;;;;;0.00;0.00;;;;;;;;5035359;28;45595;-75
2021/12/04 00:24:20;;;;;;;;;0.00;0.00;;;;;;;;5035407;28;45277;-74
2021/12/04 00:26:46;;;;;;;;;0.00;0.00;;;;;;;;5034496;28;45436;-74
2021/12/04 00:29:11;;;;;;;;;0.00;0.00;;;;;;;;5034279;28;46003;-74
2021/12/04 00:31:37;;;;;;;;;0.00;0.00;;;;;;;;5034027;28;45469;-74
2021/12/04 00:34:02;;;;;;;;;0.00;0.00;;;;;;;;5034463;28;45357;-75
2021/12/04 00:49:58;;;;;;;;;0.00;0.00;;;;;;;;5037257;28;45498;-74
2021/12/04 00:52:23;;;;;;;;;0.00;0.00;;;;;;;;5037643;28;45504;-74
2021/12/04 00:54:48;;;;;;;;;0.00;0.00;;;;;;;;5038062;28;45637;-74
2021/12/04 00:57:14;;;;;;;;;0.00;0.00;;;;;;;;5037510;28;45410;-73
2021/12/04 00:59:39;;;;;;;;;0.00;0.00;;;;;;;;5037262;28;46422;-73
2021/12/04 01:02:05;;;;;;;;;0.50;0.00;;;;;;;;5037339;28;45694;-75
2021/12/04 01:04:30;;;;;;;;;0.00;0.00;;;;;;;;5036234;28;45531;-74
2021/12/04 01:06:55;;;;;;;;;0.00;0.00;;;;;;;;5037864;28;45271;-75
2021/12/04 01:09:21;;;;;;;;;0.00;0.00;;;;;;;;5036020;28;45964;-75
2021/12/04 01:11:47;;;;;;;;;0.00;0.00;;;;;;;;5037513;28;45423;-74
2021/12/04 01:14:15;;;;;;;;;0.00;0.00;;;;;;;;5037391;28;45398;-74
2021/12/04 01:16:40;;;;;;;;;0.00;0.00;;;;;;;;5037366;28;45337;-74
2021/12/04 01:19:06;;;;;;;;;0.00;0.00;;;;;;;;5037509;28;45385;-75
2021/12/04 01:21:31;;;;;;;;;0.00;0.00;;;;;;;;5036459;28;45667;-75
2021/12/04 01:23:57;;;;;;;;;0.00;0.00;;;;;;;;5036764;28;45437;-75
2021/12/04 01:26:22;;;;;;;;;0.00;0.00;;;;;;;;5037325;28;45426;-75
2021/12/04 01:28:48;;;;;;;;;0.00;0.00;;;;;;;;5037011;28;46120;-74
2021/12/04 01:31:13;;;;;;;;;0.00;0.00;;;;;;;;5037168;28;45368;-74
2021/12/04 01:33:38;;;;;;;;;0.00;0.00;;;;;;;;5037656;28;45387;-75
2021/12/04 01:36:03;;;;;;;;;0.00;0.00;;;;;;;;5037480;28;45388;-75
2021/12/04 01:38:29;;;;;;;;;0.00;0.00;;;;;;;;5036323;28;46183;-74
2021/12/04 01:40:54;;;;;;;;;0.00;0.00;;;;;;;;5036937;28;45430;-73
2021/12/04 01:43:19;;;;;;;;;0.00;0.00;;;;;;;;5036440;28;45334;-73
2021/12/04 01:45:44;;;;;;;;;0.00;0.00;;;;;;;;5037677;28;45360;-75
2021/12/04 01:48:10;;;;;;;;;0.00;0.00;;;;;;;;5018550;28;46518;-75
2021/12/04 01:50:35;;;;;;;;;0.50;0.00;;;;;;;;5036615;28;45376;-73
2021/12/04 01:53:02;;;;;;;;;0.00;0.00;;;;;;;;5036588;28;45878;-73
2021/12/04 01:55:28;;;;;;;;;0.50;0.00;;;;;;;;5036780;28;45463;-74
2021/12/04 01:57:53;;;;;;;;;0.00;0.00;;;;;;;;5036756;28;45609;-72
2021/12/04 02:00:19;;;;;;;;;0.00;0.00;;;;;;;;5036909;28;45450;-74
2021/12/04 02:02:44;;;;;;;;;0.00;0.00;;;;;;;;5036574;28;45512;-74
2021/12/04 02:05:09;;;;;;;;;0.00;0.00;;;;;;;;5036570;28;45358;-74
2021/12/04 02:07:34;;;;;;;;;0.00;0.00;;;;;;;;5036038;28;45411;-74
2021/12/04 02:10:00;;;;;;;;;0.00;0.00;;;;;;;;5036799;28;45660;-74
2021/12/04 02:12:25;;;;;;;;;0.00;0.00;;;;;;;;5037668;28;45455;-73
2021/12/04 02:14:50;;;;;;;;;0.00;0.00;;;;;;;;5036708;28;45431;-73
2021/12/04 02:17:16;;;;;;;;;0.00;0.00;;;;;;;;5036503;28;45446;-72
2021/12/04 02:19:44;;;;;;;;;0.00;0.00;;;;;;;;5036768;28;45253;-72
2021/12/04 02:22:10;;;;;;;;;0.00;0.00;;;;;;;;5034730;28;45281;-73
2021/12/04 02:24:35;;;;;;;;;0.00;0.00;;;;;;;;5036793;28;45312;-74
2021/12/04 02:27:00;;;;;;;;;0.00;0.00;;;;;;;;5035793;28;45293;-72
2021/12/04 02:29:25;;;;;;;;;0.00;0.00;;;;;;;;5036149;28;45379;-75
2021/12/04 02:31:52;;;;;;;;;0.00;0.00;;;;;;;;5036197;28;45414;-74
2021/12/04 02:34:24;;;;;;;;;0.00;0.00;;;;;;;;5036190;28;45372;-74
2021/12/04 02:36:49;;;;;;;;;0.00;0.00;;;;;;;;5032193;28;45347;-74
2021/12/04 02:39:31;;;;;;;;;0.00;0.00;;;;;;;;5036419;28;45471;-74
2021/12/04 02:41:56;;;;;;;;;0.00;0.00;;;;;;;;5036277;28;45399;-74
2021/12/04 02:44:24;;;;;;;;;1.00;0.00;;;;;;;;5035967;28;45281;-74
2021/12/04 02:46:49;;;;;;;;;0.00;0.00;;;;;;;;5035865;28;46955;-74
2021/12/04 02:49:15;;;;;;;;;0.00;0.00;;;;;;;;5035747;28;45501;-73
2021/12/04 02:51:41;;;;;;;;;0.00;0.00;;;;;;;;5036412;28;45281;-74
2021/12/04 02:54:07;;;;;;;;;0.00;0.00;;;;;;;;5035733;28;45458;-74
2021/12/04 02:56:32;;;;;;;;;0.00;0.00;;;;;;;;5035490;28;46455;-74
2021/12/04 02:59:01;;;;;;;;;1.50;0.00;;;;;;;;5035545;28;45478;-74
2021/12/04 03:01:27;;;;;;;;;0.00;0.00;;;;;;;;5035892;28;45556;-73
2021/12/04 03:03:52;;;;;;;;;0.00;0.00;;;;;;;;5035851;28;45570;-74
2021/12/04 03:06:17;;;;;;;;;0.25;0.00;;;;;;;;5036245;28;45899;-74
2021/12/04 03:08:44;;;;;;;;;0.00;0.00;;;;;;;;5035023;28;45346;-74
2021/12/04 03:11:09;;;;;;;;;0.00;0.00;;;;;;;;5035687;28;45222;-74
2021/12/04 03:13:34;;;;;;;;;0.00;0.00;;;;;;;;5035847;28;45554;-74
2021/12/04 03:15:59;;;;;;;;;0.00;0.00;;;;;;;;5035681;28;46121;-74
2021/12/04 03:18:25;;;;;;;;;0.00;0.00;;;;;;;;5035694;28;45441;-74
2021/12/04 03:20:53;;;;;;;;;0.00;0.00;;;;;;;;5035693;28;45316;-73
2021/12/04 03:23:27;;;;;;;;;0.00;0.00;;;;;;;;5035321;28;45330;-74
2021/12/04 03:25:55;;;;;;;;;0.00;0.00;;;;;;;;5034852;28;45362;-73
2021/12/04 03:28:20;;;;;;;;;0.00;0.00;;;;;;;;5035106;28;45533;-73
2021/12/04 03:31:02;;;;;;;;;0.00;0.00;;;;;;;;5035880;28;45426;-74
2021/12/04 03:41:20;;;;;;;;;1.00;0.00;;;;;;;;5038289;28;45355;-72
2021/12/04 03:43:45;;;;;;;;;0.00;0.00;;;;;;;;5036745;28;45313;-74
2021/12/04 03:46:15;;;;;;;;;0.00;0.00;;;;;;;;5037341;28;46249;-74
2021/12/04 03:51:09;;;;;;;;;0.00;0.00;;;;;;;;5035493;28;45396;-73
2021/12/04 03:53:34;;;;;;;;;0.00;0.00;;;;;;;;5036653;28;45261;-75
2021/12/04 03:56:00;;;;;;;;;0.00;0.00;;;;;;;;5037626;28;45490;-74
2021/12/04 03:58:25;;;;;;;;;0.75;0.00;;;;;;;;5036923;28;45292;-74
2021/12/04 04:00:51;;;;;;;;;0.00;0.00;;;;;;;;5035170;28;45305;-75
2021/12/04 04:03:17;;;;;;;;;0.00;0.00;;;;;;;;5036055;28;45371;-72
2021/12/04 04:05:42;;;;;;;;;0.00;0.00;;;;;;;;5035200;28;47381;-73
2021/12/04 04:08:10;;;;;;;;;0.00;0.00;;;;;;;;5034889;28;45516;-72
2021/12/04 04:10:36;;;;;;;;;0.00;0.00;;;;;;;;5035034;28;45321;-74
2021/12/04 04:13:01;;;;;;;;;0.00;0.00;;;;;;;;5035354;28;45232;-74
2021/12/04 04:15:26;;;;;;;;;0.00;0.00;;;;;;;;5035074;28;46108;-74
2021/12/04 04:17:52;;;;;;;;;0.00;0.00;;;;;;;;5032557;28;45680;-73
2021/12/04 04:20:18;;;;;;;;;0.00;0.00;;;;;;;;5033404;28;45384;-74
2021/12/04 04:22:44;;;;;;;;;0.50;0.00;;;;;;;;5034586;28;45505;-73
2021/12/04 04:25:10;;;;;;;;;1.00;0.00;;;;;;;;5034274;28;46336;-74
2021/12/04 04:27:36;;;;;;;;;0.00;0.00;;;;;;;;5035022;28;45454;-73
2021/12/04 04:30:03;;;;;;;;;0.00;0.00;;;;;;;;5034428;28;45459;-74
2021/12/04 04:32:28;;;;;;;;;0.25;0.00;;;;;;;;5034072;28;45633;-72
2021/12/04 04:34:56;;;;;;;;;0.00;0.00;;;;;;;;5034390;28;45852;-72
2021/12/04 04:37:30;;;;;;;;;0.00;0.00;;;;;;;;5034736;28;45359;-73
2021/12/04 04:40:24;;;;;;;;;0.00;0.00;;;;;;;;5034109;28;45209;-72
2021/12/04 05:12:47;;;;;;;;;0.00;0.00;;;;;;;;5034032;28;45356;-73
2021/12/04 05:15:16;;;;;;;;;0.00;0.00;;;;;;;;5033229;28;45255;-73
2021/12/04 05:20:19;;;;;;;;;0.00;0.00;;;;;;;;5033516;28;45347;-73
2021/12/04 05:22:44;;;;;;;;;0.00;0.00;;;;;;;;5033545;28;45418;-73
2021/12/04 05:25:10;;;;;;;;;0.00;0.00;;;;;;;;5033682;28;45532;-75
2021/12/04 05:27:35;;;;;;;;;0.00;0.00;;;;;;;;5033815;28;45292;-75
2021/12/04 05:30:00;;;;;;;;;0.00;0.00;;;;;;;;5033368;28;45461;-73
2021/12/04 05:32:25;;;;;;;;;0.00;0.00;;;;;;;;5035681;28;45293;-73
2021/12/04 05:34:50;;;;;;;;;0.00;0.00;;;;;;;;5037191;28;45488;-74
2021/12/04 05:37:16;;;;;;;;;1.00;0.00;;;;;;;;5036594;28;45966;-73
2021/12/04 05:39:41;;;;;;;;;0.00;0.00;;;;;;;;5037026;28;45605;-74
2021/12/04 05:42:06;;;;;;;;;0.00;0.00;;;;;;;;5036550;28;45610;-74
2021/12/04 05:44:33;;;;;;;;;0.00;0.00;;;;;;;;5036227;28;45247;-74
2021/12/04 05:47:02;;;;;;;;;0.00;0.00;;;;;;;;5036287;28;46076;-73
2021/12/04 05:49:34;;;;;;;;;0.00;0.00;;;;;;;;5036177;28;45470;-74
2021/12/04 05:57:02;;;;;;;;;0.00;0.00;;;;;;;;5035908;28;46060;-73
2021/12/04 05:59:28;;;;;;;;;0.00;0.00;;;;;;;;5035158;28;45398;-73
2021/12/04 06:01:53;;;;;;;;;0.00;0.00;;;;;;;;5036510;28;45443;-74
2021/12/04 06:04:18;;;;;;;;;0.00;0.00;;;;;;;;5036644;28;45453;-74
2021/12/04 06:06:44;;;;;;;;;0.00;0.00;;;;;;;;5036591;28;46126;-73
2021/12/04 06:09:10;;;;;;;;;1.00;0.00;;;;;;;;5035602;28;45467;-73
2021/12/04 06:11:35;;;;;;;;;0.00;0.00;;;;;;;;5035719;28;45359;-73
2021/12/04 06:14:00;;;;;;;;;0.75;0.00;;;;;;;;5035561;28;45325;-73
2021/12/04 06:16:25;;;;;;;;;0.00;0.00;;;;;;;;5035693;28;46286;-74
2021/12/04 06:18:55;;;;;;;;;0.00;0.00;;;;;;;;5036269;28;45352;-74
2021/12/04 06:24:05;;;;;;;;;0.00;0.00;;;;;;;;5035332;28;45522;-75
2021/12/04 06:26:31;;;;;;;;;0.00;0.00;;;;;;;;5033288;28;46108;-74
2021/12/04 06:28:56;;;;;;;;;0.00;0.00;;;;;;;;5035430;28;45474;-74
2021/12/04 06:31:21;;;;;;;;;0.00;0.00;;;;;;;;5036254;28;45401;-73
2021/12/04 06:33:47;;;;;;;;;0.00;0.00;;;;;;;;5036504;28;45382;-74
2021/12/04 06:36:12;;;;;;;;;0.00;0.00;;;;;;;;5035575;28;46203;-73
2021/12/04 06:38:37;;;;;;;;;0.00;0.00;;;;;;;;5035572;28;45505;-73
2021/12/04 06:41:03;;;;;;;;;0.00;0.00;;;;;;;;5035987;28;45438;-73
2021/12/04 06:43:28;;;;;;;;;0.00;0.00;;;;;;;;5033322;28;45476;-73
2021/12/04 06:45:59;;;;;;;;;0.50;0.00;;;;;;;;5036107;28;46107;-75
2021/12/04 06:48:31;;;;;;;;;0.25;0.00;;;;;;;;5035717;28;45414;-73
2021/12/04 06:51:10;;;;;;;;;0.00;0.00;;;;;;;;5035503;28;45318;-74
2021/12/04 06:54:20;;;;;;;;;0.00;0.00;;;;;;;;5035502;28;45446;-72
2021/12/04 06:56:30;;;;;;;;;0.00;0.00;;;;;;;;5029154;28;46081;-73
2021/12/04 06:58:56;;;;;;;;;0.00;0.00;;;;;;;;5035112;28;45419;-73
2021/12/04 07:01:21;;;;;;;;;1.00;0.00;;;;;;;;5035403;28;45391;-73
2021/12/04 07:03:46;;;;;;;;;0.00;0.00;;;;;;;;5036564;28;45422;-72
2021/12/04 07:06:11;;;;;;;;;0.00;0.00;;;;;;;;5035026;28;47062;-73
2021/12/04 07:08:37;;;;;;;;;0.00;0.00;;;;;;;;5035139;28;45385;-73
2021/12/04 07:11:04;;;;;;;;;0.00;0.00;;;;;;;;5035049;28;45423;-73
2021/12/04 07:13:30;;;;;;;;;0.00;0.00;;;;;;;;5034722;28;45455;-73
2021/12/04 07:16:04;;;;;;;;;0.00;0.00;;;;;;;;5034773;28;45942;-73
2021/12/04 07:18:30;;;;;;;;;0.00;0.00;;;;;;;;5033519;28;45265;-73
2021/12/04 07:20:55;;;;;;;;;0.00;0.00;;;;;;;;5034576;28;45389;-73
2021/12/04 07:23:20;;;;;;;;;1.00;1.00;;;;;;;;5034566;28;45352;-74
2021/12/04 07:25:46;;;;;;;;;0.00;0.00;;;;;;;;5034190;28;45940;-73
2021/12/04 07:28:11;;;;;;;;;0.00;0.00;;;;;;;;5034719;28;45377;-73
2021/12/04 07:30:36;;;;;;;;;0.00;0.00;;;;;;;;5035646;28;45414;-73
2021/12/04 07:33:01;;;;;;;;;0.00;0.00;;;;;;;;5034307;28;45360;-73
2021/12/04 07:35:27;;;;;;;;;0.00;0.00;;;;;;;;5034090;28;46357;-75
2021/12/04 07:37:52;;;;;;;;;0.00;0.00;;;;;;;;5033181;28;45840;-74
2021/12/04 07:40:17;;;;;;;;;0.00;0.00;;;;;;;;5035048;28;45360;-74
2021/12/04 07:42:43;;;;;;;;;0.75;0.75;;;;;;;;5035747;28;45292;-73
2021/12/04 07:45:08;;;;;;;;;1.00;1.00;;;;;;;;5034863;28;45509;-74
2021/12/04 07:47:34;;;;;;;;;0.00;0.00;;;;;;;;5035332;28;46523;-74
2021/12/04 07:50:01;;;;;;;;;0.25;0.25;;;;;;;;5035108;28;45510;-74
2021/12/04 07:52:26;;;;;;;;;1.00;1.00;;;;;;;;5034928;28;45413;-74
2021/12/04 07:54:51;;;;;;;;;2.00;0.00;;;;;;;;5034524;28;46277;-74
2021/12/04 07:57:17;;;;;;;;;0.00;0.00;;;;;;;;5031601;28;45495;-73
2021/12/04 07:59:43;;;;;;;;;0.00;0.00;;;;;;;;5025550;28;46214;-74
2021/12/04 08:02:08;;;;;;;;;0.00;0.00;;;;;;;;5024523;28;45591;-73
2021/12/04 08:04:33;;;;;;;;;2.00;0.00;;;;;;;;5034128;28;45391;-74
2021/12/04 08:06:59;;;;;;;;;0.00;0.00;;;;;;;;5033839;28;45285;-74
2021/12/04 08:09:24;;;;;;;;;0.00;0.00;;;;;;;;5034232;28;45328;-73
2021/12/04 08:11:50;;;;;;;;;0.00;0.00;;;;;;;;5033769;28;45412;-73
2021/12/04 08:14:15;;;;;;;;;0.00;0.00;;;;;;;;5031912;28;47381;-74
2021/12/04 08:16:41;;;;;;;;;0.00;0.00;;;;;;;;5033394;28;45312;-74
2021/12/04 08:19:06;;;;;;;;;0.00;0.00;;;;;;;;5034340;28;45605;-72
2021/12/04 08:21:31;;;;;;;;;0.00;0.00;;;;;;;;5032888;28;45366;-74
2021/12/04 08:23:56;;;;;;;;;0.00;0.00;;;;;;;;5033113;28;46120;-72
2021/12/04 08:26:22;;;;;;;;;0.00;0.00;;;;;;;;5034018;28;46406;-72
2021/12/04 08:28:47;;;;;;;;;0.00;0.00;;;;;;;;5033767;28;45246;-72
2021/12/04 08:31:12;;;;;;;;;0.00;0.00;;;;;;;;5033581;28;45422;-74
2021/12/04 08:33:38;;;;;;;;;0.00;0.00;;;;;;;;5032569;28;47081;-74
2021/12/04 08:36:04;;;;;;;;;0.00;0.00;;;;;;;;5030238;28;45591;-78
2021/12/04 08:38:30;;;;;;;;;1.50;0.00;;;;;;;;5033233;28;45461;-77
2021/12/04 08:40:55;;;;;;;;;0.00;0.00;;;;;;;;5033124;28;45301;-77
2021/12/04 08:43:20;;;;;;;;;0.00;0.00;;;;;;;;5033273;28;47145;-77
2021/12/04 08:45:45;;;;;;;;;0.25;0.00;;;;;;;;5033653;28;45538;-76
2021/12/04 08:48:11;;;;;;;;;0.00;0.00;;;;;;;;5036601;28;45518;-76
2021/12/04 08:50:37;;;;;;;;;0.00;0.00;;;;;;;;5026304;28;45431;-77
2021/12/04 08:53:03;;;;;;;;;0.00;0.00;;;;;;;;5032458;28;45624;-77
2021/12/04 08:55:29;;;;;;;;;0.00;0.00;;;;;;;;5033538;28;45351;-78
2021/12/04 08:57:55;;;;;;;;;0.00;0.00;;;;;;;;5033248;28;45300;-76
2021/12/04 09:00:22;;;;;;;;;0.00;0.00;;;;;;;;5033589;28;45419;-78
2021/12/04 09:02:47;;;;;;;;;0.00;0.00;;;;;;;;5032956;28;45339;-78
2021/12/04 09:05:14;;;;;;;;;1.00;0.00;;;;;;;;5033556;28;45473;-77
2021/12/04 09:07:39;;;;;;;;;0.00;0.00;;;;;;;;5036197;28;45444;-78
2021/12/04 09:10:04;;;;;;;;;0.00;0.00;;;;;;;;5036788;28;45487;-77
2021/12/04 09:12:30;;;;;;;;;0.00;0.00;;;;;;;;5036783;28;46272;-77
2021/12/04 09:14:56;;;;;;;;;0.75;0.00;;;;;;;;5035932;28;45369;-76
2021/12/04 09:17:22;;;;;;;;;1.00;1.00;;;;;;;;5036040;28;45611;-77
2021/12/04 09:19:47;;;;;;;;;0.50;0.00;;;;;;;;5033488;28;45534;-76
2021/12/04 09:22:16;;;;;;;;;0.25;0.00;;;;;;;;5035422;28;45478;-77
2021/12/04 09:24:44;;;;;;;;;0.00;0.00;;;;;;;;5036889;28;45344;-77
2021/12/04 09:59:34;;;;;;;;;0.00;0.00;;;;;;;;5036990;28;44866;-77
2021/12/04 10:16:11;;;;;;;;;0.75;0.75;;;;;;;;4975354;28;45440;-79
2021/12/04 10:32:25;;;;;;;;;0.00;0.00;;;;;;;;4961486;28;47813;-77
2021/12/04 10:34:48;;;;;;;;;0.00;0.00;;;;;;;;4973057;28;45433;-77
2021/12/04 10:37:19;;;;;;;;;0.00;0.00;;;;;;;;4957271;28;47311;-77
2021/12/04 10:39:44;;;;;;;;;0.00;0.00;;;;;;;;4958687;28;45458;-78
2021/12/04 10:42:20;;;;;;;;;0.00;0.00;;;;;;;;4961754;28;45505;-78
2021/12/04 10:44:51;;;;;;;;;0.25;0.00;;;;;;;;4978856;28;45540;-77
2021/12/04 10:47:22;;;;;;;;;0.00;0.00;;;;;;;;5002973;28;47120;-77
2021/12/04 10:55:37;;;;;;;;;0.00;0.00;;;;;;;;4995859;28;45497;-79
2021/12/04 11:03:15;;;;;;;;;0.00;0.00;;;;;;;;4998574;28;45494;-78
2021/12/04 11:06:04;;;;;;;;;3.00;3.00;;;;;;;;5029197;28;45513;-78
2021/12/04 11:22:28;;;;;;;;;1.25;1.00;;;;;;;;5019059;28;45529;-79
2021/12/04 11:28:25;;;;;;;;;1.75;1.75;;;;;;;;5030974;28;45312;-77
2021/12/04 11:36:21;;;;;;;;;0.00;0.00;;;;;;;;5035064;28;45522;-78
2021/12/04 11:46:44;;;;;;;;;2.25;2.25;;;;;;;;5022073;28;45419;-78
2021/12/04 11:49:09;;;;;;;;;1.00;1.00;;;;;;;;5039514;28;49399;-79
2021/12/04 11:51:35;;;;;;;;;2.00;1.00;;;;;;;;5032185;28;45339;-79
2021/12/04 11:54:09;;;;;;;;;3.00;3.00;;;;;;;;5034817;28;45529;-78
2021/12/04 11:56:34;;;;;;;;;2.00;2.00;;;;;;;;5027588;28;45465;-78
2021/12/04 11:59:00;;;;;;;;;5.00;2.50;;;;;;;;5025882;28;46112;-79
2021/12/04 12:01:30;;;;;;;;;1.00;1.00;;;;;;;;5022694;28;46947;-77
2021/12/04 12:03:57;;;;;;;;;3.25;3.25;;;;;;;;5028373;28;45425;-77
2021/12/04 12:06:40;;;;;;;;;2.50;1.00;;;;;;;;5030067;28;45445;-76
2021/12/04 12:09:12;;;;;;;;;8.50;6.50;;;;;;;;5033380;28;45444;-78
2021/12/04 12:11:45;;;;;;;;;4.25;3.00;;;;;;;;5033476;28;46453;-79
2021/12/04 12:14:12;;;;;;;;;4.50;3.00;;;;;;;;5033223;28;45506;-79
2021/12/04 12:16:41;;;;;;;;;5.75;4.75;;;;;;;;5031304;28;45320;-78
2021/12/04 12:19:10;;;;;;;;;7.00;1.50;;;;;;;;5033591;28;45573;-78
2021/12/04 12:21:48;;;;;;;;;5.50;4.75;;;;;;;;5034483;28;45449;-78
2021/12/04 12:37:50;;;;;;;;;3.00;2.00;;;;;;;;5033908;28;45346;-78
2021/12/04 12:40:16;;;;;;;;;1.75;1.75;;;;;;;;5021602;28;45423;-78
2021/12/04 12:42:42;;;;;;;;;2.75;2.00;;;;;;;;5034506;28;47084;-78
2021/12/04 12:45:29;;;;;;;;;5.25;2.00;;;;;;;;5024816;28;45500;-78
2021/12/04 12:47:59;;;;;;;;;2.00;2.00;;;;;;;;5032524;28;45274;-78
2021/12/04 12:50:25;;;;;;;;;3.25;2.25;;;;;;;;5034882;28;45289;-76
2021/12/04 12:52:58;;;;;;;;;2.75;2.75;;;;;;;;5037007;28;45388;-76
2021/12/04 12:55:24;;;;;;;;;4.75;2.00;;;;;;;;5022484;28;45580;-74
2021/12/04 12:57:49;;;;;;;;;4.75;2.00;;;;;;;;5037209;28;45321;-75
2021/12/04 13:14:08;;;;;;;;;4.00;3.75;;;;;;;;5035897;28;45462;-78
2021/12/04 13:16:33;;;;;;;;;1.25;1.25;;;;;;;;5037043;28;45379;-79
2021/12/04 13:19:02;;;;;;;;;2.25;1.50;;;;;;;;5037088;28;45305;-79
2021/12/04 13:21:28;;;;;;;;;5.00;3.75;;;;;;;;5035883;28;45586;-78
2021/12/04 13:23:56;;;;;;;;;3.50;3.00;;;;;;;;5035398;28;45396;-75
2021/12/04 13:26:25;;;;;;;;;4.75;3.00;;;;;;;;5035602;28;45431;-76
2021/12/04 13:28:50;;;;;;;;;2.00;2.00;;;;;;;;5035545;28;45460;-74
2021/12/04 13:31:17;;;;;;;;;4.00;2.75;;;;;;;;5035099;28;45494;-73
2021/12/04 13:33:45;;;;;;;;;1.75;1.75;;;;;;;;5029062;28;46428;-76
2021/12/04 13:36:14;;;;;;;;;2.50;2.50;;;;;;;;5034711;28;45356;-75
2021/12/04 13:38:39;;;;;;;;;3.00;3.00;;;;;;;;5035258;28;45357;-76
2021/12/04 13:41:05;;;;;;;;;1.50;1.50;;;;;;;;5036954;28;45436;-79
2021/12/04 13:43:30;;;;;;;;;1.25;1.25;;;;;;;;5029942;28;48197;-77
2021/12/04 13:45:58;;;;;;;;;2.50;1.25;;;;;;;;5035441;28;45412;-78
2021/12/04 13:48:24;;;;;;;;;4.75;4.00;;;;;;;;5033059;28;45543;-78
2021/12/04 13:50:50;;;;;;;;;1.25;1.25;;;;;;;;5035489;28;45456;-79
2021/12/04 13:53:18;;;;;;;;;4.25;2.75;;;;;;;;5035765;28;45601;-78
2021/12/04 13:55:45;;;;;;;;;2.50;1.25;;;;;;;;5036299;28;45519;-78
2021/12/04 13:58:10;;;;;;;;;4.25;2.00;;;;;;;;5036399;28;45483;-78
2021/12/04 14:00:36;;;;;;;;;5.00;4.00;;;;;;;;5037018;28;45300;-78
2021/12/04 14:03:03;;;;;;;;;2.00;1.00;;;;;;;;5035803;28;45527;-77
2021/12/04 14:05:29;;;;;;;;;2.75;1.00;;;;;;;;5035922;28;45389;-76
2021/12/04 14:07:56;;;;;;;;;2.00;1.00;;;;;;;;5035843;28;45380;-75
2021/12/04 14:10:26;;;;;;;;;4.75;2.00;;;;;;;;5036020;28;45420;-77
2021/12/04 14:12:51;;;;;;;;;4.75;3.50;;;;;;;;5032027;28;46946;-78
2021/12/04 14:15:19;;;;;;;;;6.00;2.50;;;;;;;;5035899;28;45519;-78
2021/12/04 14:17:45;;;;;;;;;1.00;1.00;;;;;;;;5035501;28;45439;-77
2021/12/04 14:20:14;;;;;;;;;1.00;1.00;;;;;;;;5035194;28;49397;-77
2021/12/04 14:22:50;;;;;;;;;3.00;3.00;;;;;;;;5034637;28;46633;-78
2021/12/04 14:25:16;;;;;;;;;3.00;1.50;;;;;;;;5035049;28;47419;-77
2021/12/04 14:27:42;;;;;;;;;2.00;2.00;;;;;;;;5035887;28;45414;-77
2021/12/04 14:30:10;;;;;;;;;3.25;2.00;;;;;;;;5035035;28;45390;-78
2021/12/04 14:32:37;;;;;;;;;4.75;2.00;;;;;;;;5034687;28;48254;-77
2021/12/04 14:35:16;;;;;;;;;3.00;3.00;;;;;;;;5034744;28;45496;-77
2021/12/04 14:37:43;;;;;;;;;1.75;1.75;;;;;;;;5034564;28;45438;-77
2021/12/04 14:40:13;;;;;;;;;0.50;0.50;;;;;;;;5034208;28;45594;-78
2021/12/04 14:42:39;;;;;;;;;2.25;1.50;;;;;;;;5034873;28;45387;-75
2021/12/04 14:45:06;;;;;;;;;2.75;1.00;;;;;;;;5033893;28;45571;-77
2021/12/04 14:47:35;;;;;;;;;3.00;2.00;;;;;;;;5034532;28;45422;-78
2021/12/04 14:50:00;;;;;;;;;5.75;1.00;;;;;;;;5034242;28;45499;-77
2021/12/04 14:52:27;;;;;;;;;0.00;0.00;;;;;;;;5034439;28;45445;-77
2021/12/04 14:54:52;;;;;;;;;5.50;3.50;;;;;;;;5032794;28;45344;-78
2021/12/04 14:57:20;;;;;;;;;6.25;3.75;;;;;;;;5034264;28;45301;-75
2021/12/04 14:59:46;;;;;;;;;5.50;2.00;;;;;;;;5034239;28;45354;-76
2021/12/04 15:02:19;;;;;;;;;2.50;1.00;;;;;;;;5033654;28;47059;-79
2021/12/04 15:04:45;;;;;;;;;3.00;2.75;;;;;;;;5033377;28;45588;-78
2021/12/04 15:07:17;;;;;;;;;2.00;1.00;;;;;;;;5034237;28;45639;-79
2021/12/04 15:09:42;;;;;;;;;3.25;0.00;;;;;;;;5032950;28;45673;-75
2021/12/04 15:12:07;;;;;;;;;3.00;1.75;;;;;;;;5033686;28;46980;-77
2021/12/04 15:14:33;;;;;;;;;2.00;2.00;;;;;;;;5033634;28;45237;-75
2021/12/04 15:17:05;;;;;;;;;3.00;1.00;;;;;;;;5034195;28;45351;-73
2021/12/04 15:19:42;;;;;;;;;2.75;2.75;;;;;;;;5030641;28;45550;-75
2021/12/04 15:22:19;;;;;;;;;0.75;0.75;;;;;;;;5033388;28;45195;-77
2021/12/04 15:24:44;;;;;;;;;2.00;1.00;;;;;;;;5034780;28;45478;-78
2021/12/04 15:27:12;;;;;;;;;5.25;2.00;;;;;;;;5034178;28;45343;-78
2021/12/04 15:29:38;;;;;;;;;4.25;1.25;;;;;;;;5033944;28;45393;-78
2021/12/04 15:32:10;;;;;;;;;4.50;3.25;;;;;;;;5032620;28;46430;-78
2021/12/04 15:34:38;;;;;;;;;3.25;2.25;;;;;;;;5033497;28;45442;-78
2021/12/04 15:37:05;;;;;;;;;2.75;1.75;;;;;;;;5026076;28;45343;-79
2021/12/04 15:39:35;;;;;;;;;1.00;1.00;;;;;;;;5034209;28;45277;-79
2021/12/04 15:42:20;;;;;;;;;1.00;1.00;;;;;;;;5030869;28;46242;-79
2021/12/04 15:47:37;;;;;;;;;2.00;1.00;;;;;;;;5033489;28;45309;-78
2021/12/04 15:53:27;;;;;;;;;0.50;0.50;;;;;;;;5033627;28;45271;-79
2021/12/04 15:55:38;;;;;;;;;0.00;0.00;;;;;;;;5014265;28;45364;-78
2021/12/04 15:58:05;;;;;;;;;1.00;1.00;;;;;;;;5034346;28;45311;-77
2021/12/04 16:00:31;;;;;;;;;1.75;1.00;;;;;;;;5033660;28;45385;-79
2021/12/04 16:02:58;;;;;;;;;0.50;0.00;;;;;;;;5033374;28;46539;-79
2021/12/04 16:05:25;;;;;;;;;1.00;1.00;;;;;;;;5033671;28;45422;-77
2021/12/04 16:08:00;;;;;;;;;1.00;1.00;;;;;;;;5032611;28;45385;-79
2021/12/04 16:10:26;;;;;;;;;1.00;0.00;;;;;;;;5019654;28;45548;-77
2021/12/04 16:12:53;;;;;;;;;0.75;0.75;;;;;;;;5035256;28;46122;-78
2021/12/04 16:15:19;;;;;;;;;1.00;1.00;;;;;;;;5033348;28;45295;-78
2021/12/04 16:17:45;;;;;;;;;1.00;1.00;;;;;;;;5033015;28;45515;-77
2021/12/04 16:20:13;;;;;;;;;1.00;1.00;;;;;;;;5031028;28;45376;-79
2021/12/04 16:22:40;;;;;;;;;2.00;0.00;;;;;;;;5032413;28;45434;-78
2021/12/04 16:25:11;;;;;;;;;1.25;1.00;;;;;;;;5033239;28;45541;-78
2021/12/04 16:27:47;;;;;;;;;0.00;0.00;;;;;;;;5033020;28;45375;-78
2021/12/04 16:37:50;;;;;;;;;0.00;0.00;;;;;;;;4990916;28;45475;-79
2021/12/04 16:40:22;;;;;;;;;0.00;0.00;;;;;;;;4990925;28;45528;-79
2021/12/04 16:42:52;;;;;;;;;1.50;1.25;;;;;;;;4991560;28;46126;-79
2021/12/04 16:45:20;;;;;;;;;1.50;0.00;;;;;;;;4979322;28;45556;-79
2021/12/04 16:47:48;;;;;;;;;1.00;0.00;;;;;;;;4980020;28;45460;-78
2021/12/04 16:50:18;;;;;;;;;1.00;1.00;;;;;;;;4979367;28;45651;-78
2021/12/04 16:55:51;;;;;;;;;0.00;0.00;;;;;;;;4990395;28;45489;-77
2021/12/04 16:58:18;;;;;;;;;2.00;0.00;;;;;;;;4991866;28;45492;-79
2021/12/04 17:00:44;;;;;;;;;0.00;0.00;;;;;;;;4992722;28;45508;-78
2021/12/04 17:03:10;;;;;;;;;0.00;0.00;;;;;;;;4990750;28;45397;-80
2021/12/04 17:05:36;;;;;;;;;0.00;0.00;;;;;;;;4986879;28;45622;-78
2021/12/04 17:08:01;;;;;;;;;1.00;0.00;;;;;;;;4988653;28;45497;-78
2021/12/04 17:10:26;;;;;;;;;1.00;1.00;;;;;;;;4991473;28;45431;-79
2021/12/04 17:12:52;;;;;;;;;0.00;0.00;;;;;;;;4990997;28;46113;-78
2021/12/04 17:15:17;;;;;;;;;0.00;0.00;;;;;;;;4990577;28;45451;-78
2021/12/04 17:17:44;;;;;;;;;0.25;0.00;;;;;;;;4990499;28;45545;-78
2021/12/04 17:20:11;;;;;;;;;0.00;0.00;;;;;;;;4990506;28;45344;-79
2021/12/04 17:22:36;;;;;;;;;0.00;0.00;;;;;;;;4990072;28;45795;-79
2021/12/04 17:25:02;;;;;;;;;0.00;0.00;;;;;;;;4989910;28;45592;-78
2021/12/04 17:27:28;;;;;;;;;1.00;0.00;;;;;;;;4992699;28;45375;-79
2021/12/04 17:29:53;;;;;;;;;0.00;0.00;;;;;;;;4977346;28;45490;-79
2021/12/04 17:32:20;;;;;;;;;0.00;0.00;;;;;;;;5011583;28;46946;-78
2021/12/04 17:34:46;;;;;;;;;0.00;0.00;;;;;;;;5035508;28;45272;-79
2021/12/04 17:37:11;;;;;;;;;2.25;0.00;;;;;;;;5036060;28;45506;-76
2021/12/04 17:39:37;;;;;;;;;0.00;0.00;;;;;;;;5036482;28;45335;-79
2021/12/04 17:42:02;;;;;;;;;0.75;0.75;;;;;;;;5035884;28;45478;-78
2021/12/04 17:44:27;;;;;;;;;1.00;1.00;;;;;;;;5035864;28;45469;-78
2021/12/04 17:46:55;;;;;;;;;2.25;1.25;;;;;;;;5035702;28;45450;-77
2021/12/04 17:49:23;;;;;;;;;1.00;1.00;;;;;;;;5022499;28;45380;-77
2021/12/04 17:51:48;;;;;;;;;1.00;1.00;;;;;;;;5031975;28;47265;-79
2021/12/04 17:54:13;;;;;;;;;1.50;1.25;;;;;;;;5035394;28;45384;-77
2021/12/04 17:56:39;;;;;;;;;2.50;2.00;;;;;;;;5035833;28;45385;-78
2021/12/04 17:59:05;;;;;;;;;2.75;2.75;;;;;;;;5035506;28;45412;-76
2021/12/04 18:01:33;;;;;;;;;3.00;1.50;;;;;;;;5035730;28;46068;-78
2021/12/04 18:03:59;;;;;;;;;1.75;1.75;;;;;;;;5035201;28;45416;-78
2021/12/04 18:06:26;;;;;;;;;1.75;1.75;;;;;;;;5035568;28;45539;-77
2021/12/04 18:08:52;;;;;;;;;1.00;1.00;;;;;;;;5035057;28;49817;-78
2021/12/04 18:11:20;;;;;;;;;0.50;0.50;;;;;;;;5035343;28;45449;-75
2021/12/04 18:13:48;;;;;;;;;3.00;3.00;;;;;;;;5032211;28;45654;-76